createdAt,value
2019-03-15T00:01:51.351Z,50.98
2019-03-15T00:04:20.553Z,50.98
2019-03-15T00:06:50.319Z,50.60
2019-03-15T00:09:19.674Z,50.64
2019-03-15T00:11:48.795Z,50.64
2019-03-15T00:14:18.043Z,50.80
2019-03-15T00:16:47.240Z,50.70
2019-03-15T00:19:16.434Z,50.87
2019-03-15T00:21:45.606Z,50.87
2019-03-15T00:24:14.745Z,51.00
2019-03-15T00:26:43.878Z,50.90
2019-03-15T00:29:13.112Z,51.07
2019-03-15T00:31:42.454Z,50.88
2019-03-15T00:34:11.579Z,50.86
2019-03-15T00:36:40.702Z,50.83
2019-03-15T00:39:09.887Z,50.83
2019-03-15T00:41:39.024Z,50.72
2019-03-15T00:44:08.271Z,50.72
2019-03-15T00:46:37.356Z,50.71
2019-03-15T00:49:06.618Z,50.71
2019-03-15T00:51:35.869Z,50.79
2019-03-15T00:54:05.071Z,50.79
2019-03-15T00:56:34.208Z,50.76
2019-03-15T00:59:03.601Z,50.50
2019-03-15T01:01:32.657Z,50.61
2019-03-15T01:04:01.803Z,50.39
2019-03-15T01:06:31.064Z,50.42
2019-03-15T01:09:00.199Z,50.73
2019-03-15T01:11:29.357Z,50.25
2019-03-15T01:13:58.460Z,50.13
2019-03-15T01:16:27.605Z,50.11
2019-03-15T01:18:56.667Z,49.91
2019-03-15T01:21:25.908Z,50.06
2019-03-15T01:23:55.256Z,50.11
2019-03-15T01:26:24.395Z,49.62
2019-03-15T01:28:53.636Z,49.82
2019-03-15T01:31:22.795Z,49.86
2019-03-15T01:33:51.999Z,49.13
2019-03-15T01:36:21.232Z,49.13
2019-03-15T01:38:50.387Z,49.48
2019-03-15T01:41:19.447Z,49.17
2019-03-15T01:43:48.615Z,49.29
2019-03-15T01:46:17.836Z,49.18
2019-03-15T01:48:47.047Z,49.04
2019-03-15T01:51:16.281Z,49.00
2019-03-15T01:53:45.412Z,48.94
2019-03-15T01:56:14.546Z,48.94
2019-03-15T01:58:43.757Z,48.94
2019-03-15T02:01:12.969Z,49.29
2019-03-15T02:03:42.105Z,49.29
2019-03-15T02:06:11.294Z,49.22
2019-03-15T02:08:40.349Z,48.97
2019-03-15T02:11:09.547Z,49.05
2019-03-15T02:13:38.651Z,49.04
2019-03-15T02:16:08.767Z,48.90
2019-03-15T02:18:37.975Z,49.08
2019-03-15T02:21:07.238Z,48.80
2019-03-15T02:23:36.441Z,48.75
2019-03-15T02:26:05.585Z,48.84
2019-03-15T02:28:34.672Z,48.76
2019-03-15T02:31:03.822Z,48.83
2019-03-15T02:33:33.570Z,48.74
2019-03-15T02:36:03.073Z,48.81
2019-03-15T02:38:32.261Z,48.78
2019-03-15T02:41:01.461Z,48.72
2019-03-15T02:43:30.612Z,48.67
2019-03-15T02:45:59.791Z,48.68
2019-03-15T02:48:28.825Z,48.67
2019-03-15T02:50:57.942Z,48.70
2019-03-15T02:53:27.056Z,48.66
2019-03-15T02:55:56.143Z,48.77
2019-03-15T02:58:25.376Z,48.46
2019-03-15T03:00:54.538Z,48.53
2019-03-15T03:03:23.596Z,48.49
2019-03-15T03:05:52.774Z,48.55
2019-03-15T03:08:21.982Z,47.93
2019-03-15T03:10:51.031Z,48.06
2019-03-15T03:13:20.251Z,47.83
2019-03-15T03:15:49.436Z,47.78
2019-03-15T03:18:18.636Z,48.18
2019-03-15T03:20:48.338Z,47.86
2019-03-15T03:23:17.745Z,47.82
2019-03-15T03:25:46.877Z,47.58
2019-03-15T03:28:16.040Z,47.35
2019-03-15T03:30:46.838Z,47.05
2019-03-15T03:33:16.308Z,47.05
2019-03-15T03:35:45.460Z,46.98
2019-03-15T03:38:14.692Z,46.85
2019-03-15T03:40:43.790Z,46.77
2019-03-15T03:43:13.015Z,46.69
2019-03-15T03:45:42.209Z,46.68
2019-03-15T03:48:11.327Z,46.80
2019-03-15T03:50:40.583Z,46.43
2019-03-15T03:53:09.773Z,46.43
2019-03-15T03:55:38.981Z,46.27
2019-03-15T03:58:08.200Z,46.16
2019-03-15T04:00:37.389Z,46.16
2019-03-15T04:03:06.717Z,46.23
2019-03-15T04:05:36.118Z,46.26
2019-03-15T04:08:05.318Z,45.90
2019-03-15T04:10:34.575Z,46.01
2019-03-15T04:13:03.911Z,45.74
2019-03-15T04:15:33.121Z,45.75
2019-03-15T04:18:02.318Z,44.95
2019-03-15T04:20:31.463Z,44.95
2019-03-15T04:23:00.622Z,45.20
2019-03-15T04:25:29.839Z,45.33
2019-03-15T04:27:58.968Z,45.19
2019-03-15T04:30:28.187Z,45.10
2019-03-15T04:32:57.253Z,44.79
2019-03-15T04:35:26.527Z,44.91
2019-03-15T04:37:55.589Z,44.67
2019-03-15T04:40:24.792Z,44.67
2019-03-15T04:42:54.037Z,44.67
2019-03-15T04:45:23.156Z,44.86
2019-03-15T04:47:52.354Z,44.76
2019-03-15T04:50:21.762Z,44.76
2019-03-15T04:52:50.887Z,44.46
2019-03-15T04:55:20.010Z,43.72
2019-03-15T04:57:49.246Z,43.72
2019-03-15T05:00:18.378Z,43.71
2019-03-15T05:02:47.501Z,43.91
2019-03-15T05:05:16.653Z,43.42
2019-03-15T05:07:45.839Z,43.61
2019-03-15T05:10:15.137Z,43.42
2019-03-15T05:12:44.485Z,43.07
2019-03-15T05:15:13.686Z,43.06
2019-03-15T05:17:42.716Z,43.04
2019-03-15T05:20:12.180Z,42.98
2019-03-15T05:22:41.292Z,43.02
2019-03-15T05:25:11.373Z,42.96
2019-03-15T05:27:40.463Z,42.91
2019-03-15T05:30:11.417Z,42.83
2019-03-15T05:32:40.541Z,42.96
2019-03-15T05:35:09.771Z,42.96
2019-03-15T05:37:38.963Z,42.88
2019-03-15T05:40:08.554Z,42.64
2019-03-15T05:42:37.713Z,42.57
2019-03-15T05:45:09.882Z,42.64
2019-03-15T05:47:39.096Z,42.53
2019-03-15T05:50:11.028Z,42.15
2019-03-15T05:52:40.289Z,42.09
2019-03-15T05:55:14.281Z,42.05
2019-03-15T05:57:43.446Z,41.87
2019-03-15T06:00:14.258Z,41.72
2019-03-15T06:02:43.473Z,41.63
2019-03-15T06:05:13.210Z,41.47
2019-03-15T06:07:42.408Z,41.44
2019-03-15T06:10:12.663Z,41.21
2019-03-15T06:12:42.717Z,41.14
2019-03-15T06:15:24.023Z,41.13
2019-03-15T06:17:53.178Z,41.39
2019-03-15T06:20:22.399Z,40.75
2019-03-15T06:22:51.457Z,41.03
2019-03-15T06:25:20.712Z,40.86
2019-03-15T06:27:49.912Z,40.90
2019-03-15T06:30:19.089Z,40.77
2019-03-15T06:32:48.426Z,40.20
2019-03-15T06:35:17.629Z,40.29
2019-03-15T06:37:46.837Z,39.37
2019-03-15T06:40:16.021Z,39.62
2019-03-15T06:42:45.236Z,39.64
2019-03-15T06:45:15.075Z,39.63
2019-03-15T06:47:44.346Z,39.05
2019-03-15T06:50:13.976Z,38.76
2019-03-15T06:52:43.263Z,38.87
2019-03-15T06:55:12.493Z,38.42
2019-03-15T06:57:41.830Z,38.64
2019-03-15T07:00:13.530Z,38.80
2019-03-15T07:02:42.971Z,38.70
2019-03-15T07:05:12.747Z,39.16
2019-03-15T07:07:42.152Z,38.68
2019-03-15T07:10:12.378Z,37.97
2019-03-15T07:12:41.602Z,37.61
2019-03-15T07:15:12.805Z,37.12
2019-03-15T07:17:42.175Z,36.49
2019-03-15T07:20:16.319Z,36.09
2019-03-15T07:22:45.521Z,35.98
2019-03-15T07:25:14.847Z,35.51
2019-03-15T07:27:43.928Z,35.22
2019-03-15T07:30:16.376Z,35.73
2019-03-15T07:32:45.636Z,36.22
2019-03-15T07:35:14.840Z,35.83
2019-03-15T07:37:45.721Z,35.68
2019-03-15T07:40:15.033Z,35.07
2019-03-15T07:42:44.161Z,35.15
2019-03-15T07:45:14.285Z,35.23
2019-03-15T07:47:43.356Z,35.46
2019-03-15T07:50:14.847Z,36.26
2019-03-15T07:52:44.072Z,36.56
2019-03-15T07:55:13.312Z,36.70
2019-03-15T07:57:42.535Z,37.25
2019-03-15T08:00:13.993Z,37.22
2019-03-15T08:02:43.225Z,37.66
2019-03-15T08:05:12.423Z,38.01
2019-03-15T08:07:45.383Z,38.38
2019-03-15T08:10:13.502Z,38.82
2019-03-15T08:12:42.744Z,38.35
2019-03-15T08:15:13.375Z,38.54
2019-03-15T08:17:42.626Z,38.86
2019-03-15T08:20:13.442Z,38.71
2019-03-15T08:22:42.635Z,38.73
2019-03-15T08:25:12.517Z,38.68
2019-03-15T08:27:41.723Z,38.43
2019-03-15T08:30:15.574Z,37.97
2019-03-15T08:32:44.871Z,37.38
2019-03-15T08:35:14.362Z,36.52
2019-03-15T08:37:43.510Z,36.31
2019-03-15T08:40:13.748Z,37.05
2019-03-15T08:42:42.945Z,37.29
2019-03-15T08:45:20.488Z,37.70
2019-03-15T08:47:49.690Z,38.25
2019-03-15T08:50:20.089Z,38.40
2019-03-15T08:52:49.323Z,38.25
2019-03-15T08:55:18.535Z,38.04
2019-03-15T08:57:47.736Z,38.12
2019-03-15T09:00:29.015Z,38.35
2019-03-15T09:02:58.163Z,38.05
2019-03-15T09:05:27.366Z,37.99
2019-03-15T09:07:56.606Z,37.13
2019-03-15T09:10:26.093Z,37.16
2019-03-15T09:12:55.422Z,37.79
2019-03-15T09:15:24.945Z,37.68
2019-03-15T09:17:54.095Z,38.64
2019-03-15T09:20:23.277Z,39.45
2019-03-15T09:22:52.512Z,39.85
2019-03-15T09:25:21.655Z,39.52
2019-03-15T09:27:50.862Z,39.87
2019-03-15T09:30:24.419Z,39.71
2019-03-15T09:32:51.084Z,39.01
2019-03-15T09:35:20.355Z,38.38
2019-03-15T09:37:49.641Z,37.84
2019-03-15T09:40:18.931Z,37.38
2019-03-15T09:42:48.130Z,36.96
2019-03-15T09:45:18.587Z,36.47
2019-03-15T09:47:47.797Z,34.91
2019-03-15T09:50:26.594Z,35.86
2019-03-15T09:52:48.361Z,34.44
2019-03-15T09:55:17.582Z,32.91
2019-03-15T09:57:46.753Z,31.78
2019-03-15T10:00:16.975Z,32.33
2019-03-15T10:02:46.187Z,32.04
2019-03-15T10:05:16.054Z,31.14
2019-03-15T10:07:45.334Z,30.73
2019-03-15T10:10:19.130Z,31.13
2019-03-15T10:12:48.741Z,31.40
2019-03-15T10:15:18.382Z,32.07
2019-03-15T10:17:47.650Z,32.55
2019-03-15T10:20:16.864Z,32.40
2019-03-15T10:22:46.103Z,33.02
2019-03-15T10:25:16.317Z,33.70
2019-03-15T10:27:45.824Z,34.60
2019-03-15T10:30:19.033Z,33.59
2019-03-15T10:32:48.498Z,32.91
2019-03-15T10:35:18.015Z,32.36
2019-03-15T10:37:47.200Z,32.03
2019-03-15T10:40:18.486Z,31.81
2019-03-15T10:42:47.819Z,31.96
2019-03-15T10:45:17.190Z,31.50
2019-03-15T10:47:46.395Z,31.56
2019-03-15T10:50:20.143Z,30.58
2019-03-15T10:52:49.375Z,30.81
2019-03-15T10:55:20.652Z,32.44
2019-03-15T10:57:49.382Z,32.69
2019-03-15T11:00:20.553Z,33.16
2019-03-15T11:02:49.877Z,34.28
2019-03-15T11:05:19.396Z,33.50
2019-03-15T11:07:48.697Z,33.53
2019-03-15T11:10:17.966Z,32.33
2019-03-15T11:12:47.095Z,31.15
2019-03-15T11:15:16.970Z,31.10
2019-03-15T11:17:46.099Z,30.38
2019-03-15T11:20:15.368Z,29.59
2019-03-15T11:22:44.775Z,29.63
2019-03-15T11:25:14.041Z,29.73
2019-03-15T11:27:43.245Z,30.23
2019-03-15T11:30:13.833Z,30.86
2019-03-15T11:32:43.060Z,31.43
2019-03-15T11:35:12.594Z,31.47
2019-03-15T11:37:41.870Z,32.15
2019-03-15T11:40:19.349Z,32.54
2019-03-15T11:42:48.984Z,31.98
2019-03-15T11:45:33.214Z,31.38
2019-03-15T11:48:04.381Z,31.76
2019-03-15T11:50:33.594Z,30.16
2019-03-15T11:53:02.737Z,32.21
2019-03-15T11:55:31.891Z,32.83
2019-03-15T11:58:01.095Z,33.69
2019-03-15T12:00:30.230Z,33.98
2019-03-15T12:02:59.474Z,34.33
2019-03-15T12:05:28.655Z,34.06
2019-03-15T12:07:57.853Z,33.00
2019-03-15T12:10:27.077Z,30.30
2019-03-15T12:12:56.282Z,29.58
2019-03-15T12:15:25.403Z,28.65
2019-03-15T12:17:54.830Z,27.53
2019-03-15T12:20:24.068Z,28.09
2019-03-15T12:22:53.297Z,29.31
2019-03-15T12:25:22.549Z,30.66
2019-03-15T12:27:51.796Z,31.19
2019-03-15T12:30:33.062Z,31.59
2019-03-15T12:33:02.325Z,31.95
2019-03-15T12:35:31.461Z,32.44
2019-03-15T12:38:00.639Z,32.58
2019-03-15T12:40:30.075Z,32.84
2019-03-15T12:42:59.342Z,33.45
2019-03-15T12:45:28.435Z,34.81
2019-03-15T12:47:57.586Z,36.81
2019-03-15T12:50:26.863Z,37.91
2019-03-15T12:52:56.090Z,37.71
2019-03-15T12:55:25.202Z,37.37
2019-03-15T12:57:54.514Z,37.29
2019-03-15T13:00:23.756Z,35.62
2019-03-15T13:02:53.021Z,35.78
2019-03-15T13:05:22.157Z,36.39
2019-03-15T13:07:51.399Z,37.71
2019-03-15T13:10:21.995Z,38.02
2019-03-15T13:12:51.267Z,37.98
2019-03-15T13:15:20.504Z,38.44
2019-03-15T13:17:49.690Z,38.14
2019-03-15T13:20:19.375Z,37.63
2019-03-15T13:22:48.656Z,37.21
2019-03-15T13:25:17.885Z,37.70
2019-03-15T13:27:47.068Z,37.56
2019-03-15T13:30:17.759Z,38.11
2019-03-15T13:32:46.971Z,37.95
2019-03-15T13:35:16.176Z,37.08
2019-03-15T13:37:46.350Z,36.76
2019-03-15T13:40:17.390Z,37.08
2019-03-15T13:42:46.690Z,37.34
2019-03-15T13:45:16.632Z,36.98
2019-03-15T13:47:45.817Z,36.90
2019-03-15T13:50:17.258Z,36.61
2019-03-15T13:52:46.506Z,36.44
2019-03-15T13:55:15.705Z,36.22
2019-03-15T13:57:44.920Z,35.69
2019-03-15T14:00:19.983Z,35.53
2019-03-15T14:02:49.150Z,35.91
2019-03-15T14:05:18.519Z,36.29
2019-03-15T14:07:47.675Z,36.41
2019-03-15T14:10:18.040Z,36.73
2019-03-15T14:12:47.283Z,36.94
2019-03-15T14:15:18.282Z,36.56
2019-03-15T14:17:47.493Z,37.01
2019-03-15T14:20:16.699Z,37.33
2019-03-15T14:22:45.856Z,37.42
2019-03-15T14:25:17.633Z,38.15
2019-03-15T14:27:46.846Z,39.24
2019-03-15T14:30:16.266Z,39.69
2019-03-15T14:32:45.330Z,40.01
2019-03-15T14:35:14.633Z,40.37
2019-03-15T14:37:43.915Z,40.96
2019-03-15T14:40:13.431Z,41.69
2019-03-15T14:42:42.723Z,42.40
2019-03-15T14:45:15.324Z,42.71
2019-03-15T14:47:44.491Z,42.28
2019-03-15T14:50:14.859Z,41.89
2019-03-15T14:52:44.179Z,41.47
2019-03-15T14:55:15.137Z,41.71
2019-03-15T14:57:51.847Z,41.38
2019-03-15T15:02:57.205Z,42.84
2019-03-15T15:05:26.378Z,43.07
2019-03-15T15:07:55.609Z,43.14
2019-03-15T15:10:24.855Z,43.60
2019-03-15T15:12:54.110Z,43.57
2019-03-15T15:15:42.639Z,43.15
2019-03-15T15:18:11.721Z,42.90
2019-03-15T15:20:40.993Z,43.23
2019-03-15T15:23:10.195Z,43.04
2019-03-15T15:25:39.504Z,42.89
2019-03-15T15:28:08.651Z,43.11
2019-03-15T15:30:37.758Z,41.53
2019-03-15T15:33:07.015Z,41.79
2019-03-15T15:35:36.229Z,41.74
2019-03-15T15:38:05.432Z,41.99
2019-03-15T15:40:34.708Z,42.31
2019-03-15T15:43:03.841Z,42.04
2019-03-15T15:45:32.977Z,42.20
2019-03-15T15:48:02.216Z,41.65
2019-03-15T15:50:31.360Z,41.49
2019-03-15T15:53:00.550Z,41.75
2019-03-15T15:55:29.782Z,41.80
2019-03-15T15:57:58.911Z,42.12
2019-03-15T16:00:28.102Z,41.90
2019-03-15T16:02:57.348Z,41.80
2019-03-15T16:05:26.545Z,41.87
2019-03-15T16:07:56.793Z,42.37
2019-03-15T16:10:26.285Z,42.48
2019-03-15T16:12:55.487Z,42.67
2019-03-15T16:15:24.770Z,42.81
2019-03-15T16:17:54.618Z,43.10
2019-03-15T16:20:23.750Z,43.13
2019-03-15T16:22:52.953Z,43.50
2019-03-15T16:25:22.197Z,43.53
2019-03-15T16:27:51.454Z,43.92
2019-03-15T16:30:23.476Z,43.92
2019-03-15T16:32:52.759Z,44.12
2019-03-15T16:35:21.968Z,44.21
2019-03-15T16:37:51.161Z,44.57
2019-03-15T16:40:20.456Z,44.69
2019-03-15T16:42:49.674Z,44.91
2019-03-15T16:45:42.987Z,45.03
2019-03-15T16:48:12.189Z,45.27
2019-03-15T16:50:41.425Z,45.39
2019-03-15T16:53:10.638Z,45.55
2019-03-15T16:55:39.875Z,45.74
2019-03-15T16:58:09.039Z,46.08
2019-03-15T17:00:38.195Z,46.08
2019-03-15T17:03:07.430Z,46.07
2019-03-15T17:05:36.642Z,46.04
2019-03-15T17:08:05.727Z,46.29
2019-03-15T17:10:35.022Z,46.48
2019-03-15T17:13:04.280Z,46.46
2019-03-15T17:15:33.440Z,46.54
2019-03-15T17:18:02.772Z,46.29
2019-03-15T17:20:31.971Z,46.82
2019-03-15T17:23:01.296Z,47.05
2019-03-15T17:25:30.566Z,46.78
2019-03-15T17:27:59.781Z,47.12
2019-03-15T17:30:29.170Z,47.51
2019-03-15T17:32:59.744Z,47.15
2019-03-15T17:35:28.945Z,47.17
2019-03-15T17:37:58.176Z,46.98
2019-03-15T17:40:27.407Z,47.31
2019-03-15T17:42:56.609Z,47.46
2019-03-15T17:45:25.913Z,47.54
2019-03-15T17:47:55.161Z,47.68
2019-03-15T17:50:27.833Z,47.73
2019-03-15T17:52:57.165Z,47.63
2019-03-15T17:55:26.310Z,47.70
2019-03-15T17:57:55.656Z,47.68
2019-03-15T18:00:29.025Z,47.79
2019-03-15T18:02:58.189Z,47.49
2019-03-15T18:05:27.251Z,47.69
2019-03-15T18:07:56.463Z,47.64
2019-03-15T18:10:25.702Z,47.81
2019-03-15T18:12:54.975Z,47.50
2019-03-15T18:15:24.207Z,47.93
2019-03-15T18:17:53.480Z,47.69
2019-03-15T18:20:22.784Z,47.62
2019-03-15T18:22:52.010Z,47.23
2019-03-15T18:25:21.243Z,47.37
2019-03-15T18:27:50.862Z,47.23
2019-03-15T18:30:20.070Z,47.30
2019-03-15T18:32:49.261Z,47.34
2019-03-15T18:35:32.638Z,47.34
2019-03-15T18:37:49.517Z,47.44
2019-03-15T18:40:20.058Z,47.63
2019-03-15T18:42:49.356Z,47.88
2019-03-15T18:45:19.271Z,48.22
2019-03-15T18:47:48.525Z,48.13
2019-03-15T18:50:23.606Z,48.20
2019-03-15T18:52:52.910Z,48.31
2019-03-15T18:55:22.306Z,48.18
2019-03-15T18:57:51.601Z,48.51
2019-03-15T19:00:23.093Z,48.60
2019-03-15T19:02:52.394Z,48.71
2019-03-15T19:05:21.593Z,48.52
2019-03-15T19:07:50.749Z,48.55
2019-03-15T19:10:20.003Z,48.27
2019-03-15T19:12:49.270Z,48.35
2019-03-15T19:15:22.148Z,48.19
2019-03-15T19:17:51.463Z,48.22
2019-03-15T19:20:20.960Z,48.21
2019-03-15T19:22:50.174Z,48.20
2019-03-15T19:25:19.444Z,48.22
2019-03-15T19:27:48.659Z,48.10
2019-03-15T19:30:19.916Z,48.06
2019-03-15T19:32:49.154Z,48.27
2019-03-15T19:35:18.379Z,48.19
2019-03-15T19:37:47.591Z,48.12
2019-03-15T19:40:18.239Z,48.33
2019-03-15T19:42:47.464Z,48.31
2019-03-15T19:45:19.783Z,48.47
2019-03-15T19:47:49.026Z,48.42
2019-03-15T19:50:24.629Z,48.43
2019-03-15T19:52:53.696Z,48.46
2019-03-15T19:55:23.012Z,48.48
2019-03-15T19:57:52.178Z,48.88
2019-03-15T20:00:22.209Z,48.77
2019-03-15T20:02:51.450Z,49.03
2019-03-15T20:05:20.659Z,48.87
2019-03-15T20:07:50.064Z,49.02
2019-03-15T20:10:19.810Z,48.83
2019-03-15T20:12:48.967Z,48.91
2019-03-15T20:15:18.453Z,48.73
2019-03-15T20:17:47.698Z,48.63
2019-03-15T20:20:18.308Z,48.82
2019-03-15T20:22:47.550Z,48.83
2019-03-15T20:25:17.494Z,48.88
2019-03-15T20:27:46.697Z,49.02
2019-03-15T20:30:22.106Z,48.91
2019-03-15T20:32:48.818Z,49.33
2019-03-15T20:35:18.107Z,49.09
2019-03-15T20:37:47.276Z,49.04
2019-03-15T20:40:16.801Z,49.35
2019-03-15T20:42:45.960Z,49.08
2019-03-15T20:45:17.720Z,49.08
2019-03-15T20:47:46.955Z,49.02
2019-03-15T20:50:16.163Z,49.07
2019-03-15T20:52:45.440Z,49.01
2019-03-15T20:55:14.632Z,48.71
2019-03-15T20:57:43.693Z,48.75
2019-03-15T21:00:34.728Z,48.91
2019-03-15T21:02:53.881Z,48.70
2019-03-15T21:05:23.121Z,48.83
2019-03-15T21:07:52.282Z,48.74
2019-03-15T21:10:21.491Z,48.88
2019-03-15T21:12:50.867Z,48.77
2019-03-15T21:15:20.114Z,48.69
2019-03-15T21:17:49.348Z,48.42
2019-03-15T21:20:22.301Z,48.47
2019-03-15T21:22:50.678Z,48.45
2019-03-15T21:25:19.909Z,48.24
2019-03-15T21:27:54.139Z,48.24
2019-03-15T21:30:22.164Z,48.20
2019-03-15T21:32:51.373Z,48.14
2019-03-15T21:35:20.600Z,48.07
2019-03-15T21:37:49.835Z,48.02
2019-03-15T21:40:20.157Z,48.11
2019-03-15T21:42:49.419Z,48.10
2019-03-15T21:45:18.584Z,48.11
2019-03-15T21:47:47.798Z,48.14
2019-03-15T21:50:18.437Z,47.66
2019-03-15T21:52:50.430Z,47.42
2019-03-15T21:55:19.647Z,47.31
2019-03-15T21:57:48.905Z,47.22
2019-03-15T22:00:20.025Z,46.84
2019-03-15T22:02:49.231Z,46.81
2019-03-15T22:05:18.520Z,47.12
2019-03-15T22:07:47.778Z,46.50
2019-03-15T22:10:17.813Z,46.47
2019-03-15T22:12:47.211Z,46.41
2019-03-15T22:15:16.550Z,46.35
2019-03-15T22:17:45.709Z,46.32
2019-03-15T22:20:16.387Z,46.38
2019-03-15T22:22:45.590Z,46.19
2019-03-15T22:25:14.810Z,46.22
2019-03-15T22:27:44.061Z,46.27
2019-03-15T22:30:14.932Z,46.39
2019-03-15T22:32:44.143Z,46.22
2019-03-15T22:35:14.956Z,46.31
2019-03-15T22:37:44.021Z,46.14
2019-03-15T22:40:14.022Z,46.10
2019-03-15T22:42:43.283Z,46.01
2019-03-15T22:45:13.758Z,45.88
2019-03-15T22:47:42.970Z,45.92
2019-03-15T22:50:13.515Z,45.48
2019-03-15T22:52:42.726Z,45.46
2019-03-15T22:55:12.241Z,45.44
2019-03-15T22:57:41.483Z,45.31
2019-03-15T23:00:20.592Z,45.49
2019-03-15T23:02:49.910Z,45.46
2019-03-15T23:05:19.229Z,45.31
2019-03-15T23:07:48.411Z,45.14
2019-03-15T23:10:17.644Z,45.22
2019-03-15T23:12:46.865Z,45.28
2019-03-15T23:15:16.100Z,45.14
2019-03-15T23:17:45.375Z,45.13
2019-03-15T23:20:14.788Z,45.09
2019-03-15T23:22:43.987Z,45.00
2019-03-15T23:25:13.236Z,45.20
2019-03-15T23:27:42.373Z,44.91
2019-03-15T23:30:16.543Z,44.95
2019-03-15T23:32:45.788Z,44.60
2019-03-15T23:35:15.018Z,44.61
2019-03-15T23:37:44.086Z,44.73
2019-03-15T23:40:14.364Z,44.61
2019-03-15T23:42:43.536Z,44.21
2019-03-15T23:45:12.945Z,44.31
2019-03-15T23:47:42.186Z,44.11
2019-03-15T23:50:13.566Z,44.01
2019-03-15T23:52:42.792Z,44.31
2019-03-15T23:55:12.212Z,44.06
2019-03-15T23:57:41.350Z,44.09
